Portada
METAR-TAF:

METAR-TAF

Aeroports :

Kulu / Manali, Índia

latitud: 31-52-36N, longitud: 77-09-16E, altitud: 1089 m

METAR: manca

Hora: 11:38 (06:08 UTC)

Pronòstic

L'informe es va fer fa 1 hora i 8 minuts, a les 05:00 UTC
Pronòstic vàlid del 07 a les 06 UTC al 07 a les 15 UTC
Vent kt del Nord
Visibilitat: 5000 m
Escasses núvols a una alçada de 1000 ft
calitja

TAF: VIBR 070500Z 0706/0715 00000KT 5000 HZ FEW010

Observacions i pronòstics meteorològics de més de 4000 aeroports (METAR i TAF).

Les estacions disponibles són els punts grocs i vermells al mapa.

Posi el ratolí al punt desitjat per veure el nom de l'estació.

Feu clic per veure les observacions i els pronòstics meteorològics.

Per canviar el mapa: feu clic els botons verds amb una creu de color negre per apropar; al botó verd amb un guió per allunyar la imatge; o en les fletxes verdes per a mapes adjacents.


METAR-TAF: